Time;durP1;ratioP1;P1;durP2;ratioP2;P2;SDS_P1;SDS_P2;PMS_P1;PMS_P2;Temp;Humidity;BMP_temperature;BMP_pressure;BME280_temperature;BME280_humidity;BME280_pressure;Samples;Min_cycle;Max_cycle;Signal;HPM_P1;HPM_P2
2022/04/12 00:00:17;;;;;;;2.17;1.00;;;;;;;5.99;50.81;99903.14;1741149;81;21067;-69
2022/04/12 00:02:43;;;;;;;1.23;0.83;;;;;;;5.98;50.94;99908.94;1743999;81;21486;-69
2022/04/12 00:05:11;;;;;;;4.70;1.27;;;;;;;5.97;50.88;99895.87;1726282;81;21094;-69
2022/04/12 00:07:40;;;;;;;1.67;1.03;;;;;;;5.93;51.09;99890.06;1737527;82;21140;-69
2022/04/12 00:10:10;;;;;;;0.70;0.70;;;;;;;5.92;50.91;99887.61;1725239;81;21462;-68
2022/04/12 00:12:37;;;;;;;1.47;1.17;;;;;;;5.88;51.14;99899.02;1725350;81;21113;-68
2022/04/12 00:15:07;;;;;;;2.87;1.60;;;;;;;5.89;51.20;99893.22;1745986;81;21540;-69
2022/04/12 00:20:26;;;;;;;2.67;1.30;;;;;;;5.80;51.48;99880.50;1725481;81;21074;-69
2022/04/12 00:22:53;;;;;;;6.33;1.53;;;;;;;5.81;51.42;99887.45;1727572;81;21112;-69
2022/04/12 00:25:22;;;;;;;2.70;0.80;;;;;;;5.81;51.48;99887.45;1734299;81;21887;-69
2022/04/12 00:27:52;;;;;;;1.43;1.07;;;;;;;5.80;51.60;99885.31;1731919;81;21644;-69
2022/04/12 00:30:20;;;;;;;4.23;1.53;;;;;;;5.79;51.84;99898.70;1728756;81;21071;-69
2022/04/12 00:32:50;;;;;;;2.60;0.97;;;;;;;5.76;51.78;99886.63;1726696;81;21533;-69
2022/04/12 00:35:22;;;;;;;1.00;0.87;;;;;;;5.76;51.76;99901.16;1727220;81;21145;-70
2022/04/12 00:37:52;;;;;;;2.90;1.10;;;;;;;5.74;51.91;99874.57;1729110;81;21053;-69
2022/04/12 00:40:20;;;;;;;4.40;1.20;;;;;;;5.74;51.68;99887.29;1717884;81;22224;-69
2022/04/12 00:42:48;;;;;;;3.90;1.07;;;;;;;5.72;52.23;99881.84;1734849;81;21068;-69
2022/04/12 00:45:15;;;;;;;2.87;1.13;;;;;;;5.69;52.10;99883.50;1737390;81;21061;-69
2022/04/12 00:47:41;;;;;;;;;;;;;;;5.69;52.13;99883.50;1748855;81;21465;-69
2022/04/12 00:50:10;;;;;;;2.70;1.60;;;;;;;5.63;52.43;99891.12;1748856;81;20148;-70
2022/04/12 00:52:43;;;;;;;3.33;1.30;;;;;;;5.58;52.42;99888.15;1725118;81;21128;-68
2022/04/12 00:55:10;;;;;;;5.73;1.00;;;;;;;5.56;52.54;99884.85;1741300;81;21066;-69
2022/04/12 00:57:37;;;;;;;4.50;1.57;;;;;;;5.56;52.60;99878.23;1760016;80;21086;-69
2022/04/12 01:00:07;;;;;;;2.63;1.13;;;;;;;5.57;52.67;99888.31;1751274;80;21064;-67
2022/04/12 01:02:35;;;;;;;1.70;0.90;;;;;;;5.56;52.83;99875.59;1816734;78;21491;-69
2022/04/12 01:05:04;;;;;;;3.60;1.90;;;;;;;5.55;52.94;99882.37;1760615;80;21214;-68
2022/04/12 01:07:32;;;;;;;2.20;0.90;;;;;;;5.53;52.90;99894.42;1758973;80;21096;-69
2022/04/12 01:09:59;;;;;;;;;;;;;;;5.48;53.34;99878.23;1753835;80;21021;-70
2022/04/12 01:12:30;;;;;;;2.10;1.10;;;;;;;5.51;53.19;99883.70;1752664;80;20171;-70
2022/04/12 01:15:20;;;;;;;1.00;0.90;;;;;;;5.41;53.65;99874.62;1758130;80;21082;-69
2022/04/12 01:17:48;;;;;;;3.83;1.47;;;;;;;5.40;53.43;99877.73;1753731;79;21092;-69
2022/04/12 01:20:17;;;;;;;4.73;1.40;;;;;;;5.40;53.47;99863.70;1779888;79;22215;-70
2022/04/12 01:23:22;;;;;;;3.33;1.20;;;;;;;5.41;53.67;99877.27;1738397;80;21574;-69
2022/04/12 01:25:49;;;;;;;3.77;1.73;;;;;;;5.38;53.65;99874.94;1756226;80;21632;-70
2022/04/12 01:28:16;;;;;;;4.63;2.47;;;;;;;5.36;53.74;99878.25;1766035;79;21053;-69
2022/04/12 01:30:44;;;;;;;3.60;1.47;;;;;;;5.27;53.89;99872.13;1763379;79;21018;-68
2022/04/12 01:33:12;;;;;;;3.67;1.67;;;;;;;5.32;53.88;99871.65;1727625;81;21062;-69
2022/04/12 01:35:38;;;;;;;2.37;1.17;;;;;;;5.29;53.96;99870.14;1758644;80;21063;-69
2022/04/12 01:38:05;;;;;;;1.95;1.00;;;;;;;5.28;53.73;99869.83;1765214;80;21192;-70
2022/04/12 01:40:32;;;;;;;3.53;1.53;;;;;;;5.23;53.84;99857.09;1748901;80;21049;-70
2022/04/12 01:42:59;;;;;;;3.33;1.17;;;;;;;5.29;53.71;99868.82;1773747;79;21010;-70
2022/04/12 01:45:27;;;;;;;2.92;1.65;;;;;;;5.30;53.56;99860.42;1757600;80;21164;-69
2022/04/12 01:47:56;;;;;;;2.23;1.07;;;;;;;5.33;53.74;99865.35;1781919;80;21419;-70
2022/04/12 01:50:23;;;;;;;2.40;1.00;;;;;;;5.32;53.71;99857.11;1756986;80;21057;-69
2022/04/12 01:52:51;;;;;;;2.10;1.43;;;;;;;5.32;53.60;99848.69;1748908;81;20982;-70
2022/04/12 01:55:19;;;;;;;5.47;1.20;;;;;;;5.31;53.73;99848.84;1754600;80;22103;-69
2022/04/12 01:57:46;;;;;;;2.53;1.17;;;;;;;5.30;53.89;99842.73;1705433;82;21579;-69
2022/04/12 02:00:14;;;;;;;1.90;0.90;;;;;;;5.29;54.00;99844.22;1697507;84;22228;-69
2022/04/12 02:02:41;;;;;;;2.23;1.50;;;;;;;5.26;54.15;99836.14;1740214;82;21105;-70
2022/04/12 02:05:08;;;;;;;2.90;1.05;;;;;;;5.25;54.09;99831.83;1676121;83;21087;-69
2022/04/12 02:07:37;;;;;;;2.67;1.40;;;;;;;5.23;54.13;99828.53;1726390;82;21121;-69
2022/04/12 02:10:06;;;;;;;3.47;1.77;;;;;;;5.16;54.35;99834.99;1711687;82;21158;-68
2022/04/12 02:12:32;;;;;;;1.70;1.10;;;;;;;5.14;54.33;99822.45;1738384;81;21552;-70
2022/04/12 02:14:59;;;;;;;3.05;1.25;;;;;;;5.15;54.30;99829.87;1737386;82;21517;-70
2022/04/12 02:17:26;;;;;;;3.60;1.77;;;;;;;5.14;54.04;99815.00;1738201;81;21531;-68
2022/04/12 02:19:52;;;;;;;3.00;1.17;;;;;;;5.12;54.03;99809.05;1726479;81;21022;-69
2022/04/12 02:22:19;;;;;;;1.82;1.27;;;;;;;5.05;54.20;99799.66;1744680;81;21004;-69
2022/04/12 02:24:45;;;;;;;4.85;1.47;;;;;;;5.05;54.13;99809.72;1721284;81;21811;-69
2022/04/12 02:27:13;;;;;;;2.00;0.77;;;;;;;5.04;54.12;99810.70;1724194;82;21062;-68
2022/04/12 02:29:39;;;;;;;3.83;0.90;;;;;;;5.04;54.13;99817.81;1733990;82;21018;-71
2022/04/12 02:32:07;;;;;;;3.92;1.02;;;;;;;5.02;54.53;99814.00;1730492;82;21099;-69
2022/04/12 02:34:33;;;;;;;1.50;1.00;;;;;;;5.03;54.12;99822.78;1732840;82;21160;-68
2022/04/12 02:37:00;;;;;;;1.70;0.98;;;;;;;5.02;54.14;99825.89;1740668;82;21032;-68
2022/04/12 02:40:52;;;;;;;2.07;0.90;;;;;;;5.08;54.05;99823.09;1797774;78;22990;-72
2022/04/12 02:43:18;;;;;;;5.05;1.07;;;;;;;5.04;54.11;99833.16;1771178;80;21036;-69
2022/04/12 02:45:46;;;;;;;2.43;0.70;;;;;;;5.05;54.05;99842.75;1747133;79;21538;-69
2022/04/12 02:48:13;;;;;;;2.47;0.50;;;;;;;5.06;54.05;99842.24;1728802;82;20979;-69
2022/04/12 02:50:40;;;;;;;3.00;0.93;;;;;;;5.04;54.37;99838.94;1731953;82;21061;-70
2022/04/12 02:53:06;;;;;;;2.35;0.98;;;;;;;5.04;54.14;99821.77;1728454;83;21061;-69
2022/04/12 02:55:33;;;;;;;1.85;1.42;;;;;;;5.01;54.18;99822.09;1721104;81;21091;-69
2022/04/12 02:57:59;;;;;;;4.22;1.35;;;;;;;4.98;54.15;99815.83;1722005;81;21021;-69
2022/04/12 03:00:25;;;;;;;2.50;1.00;;;;;;;4.97;54.30;99822.94;1729132;81;21068;-68
2022/04/12 03:02:51;;;;;;;2.22;0.85;;;;;;;4.98;54.34;99831.17;1719331;81;21000;-69
2022/04/12 03:05:18;;;;;;;3.42;0.95;;;;;;;4.96;54.48;99821.78;1724981;81;21630;-69
2022/04/12 03:07:44;;;;;;;2.55;0.98;;;;;;;4.96;54.58;99818.64;1711640;81;21028;-68
2022/04/12 03:10:10;;;;;;;2.25;1.45;;;;;;;4.96;54.41;99813.35;1723911;81;21000;-69
2022/04/12 03:12:37;;;;;;;2.85;1.30;;;;;;;4.97;54.31;99821.62;1704566;81;21041;-69
2022/04/12 03:15:08;;;;;;;2.13;1.50;;;;;;;4.95;54.39;99826.21;1704379;82;21106;-69
2022/04/12 03:17:36;;;;;;;4.40;1.80;;;;;;;4.92;54.12;99820.46;1711184;82;21286;-70
2022/04/12 03:20:05;;;;;;;2.77;1.03;;;;;;;4.91;54.15;99820.11;1698093;82;21385;-68
2022/04/12 03:22:31;;;;;;;1.57;0.60;;;;;;;4.91;54.29;99822.76;1704352;82;21026;-68
2022/04/12 03:24:57;;;;;;;2.15;1.05;;;;;;;4.88;54.35;99824.73;1718364;82;21092;-69
2022/04/12 03:27:24;;;;;;;4.75;1.02;;;;;;;4.87;54.58;99820.94;1689471;82;21401;-67
2022/04/12 03:29:50;;;;;;;1.10;0.70;;;;;;;4.49;54.26;99763.30;1707503;82;21519;-69
2022/04/12 03:32:17;;;;;;;;;;;;;;;4.85;53.89;99818.45;1707615;82;21603;-67
2022/04/12 03:34:44;;;;;;;4.57;1.37;;;;;;;4.85;53.79;99821.59;1703543;82;20293;-70
2022/04/12 03:37:11;;;;;;;3.37;1.30;;;;;;;4.79;53.80;99816.48;1656539;84;21047;-66
2022/04/12 03:39:38;;;;;;;2.37;1.50;;;;;;;4.80;53.94;99800.98;1684259;83;21078;-69
2022/04/12 03:42:11;;;;;;;4.15;1.07;;;;;;;4.80;53.70;99809.38;1690854;84;21029;-71
2022/04/12 03:44:36;;;;;;;2.47;1.10;;;;;;;4.81;53.67;99820.28;1669576;82;21490;-70
2022/04/12 03:47:02;;;;;;;3.45;1.05;;;;;;;4.82;53.66;99808.71;1645359;86;21146;-69
2022/04/12 03:49:29;;;;;;;;;;;;;;;4.81;53.59;99810.53;1678540;84;22354;-69
2022/04/12 03:51:55;;;;;;;2.00;0.93;;;;;;;4.84;53.33;99822.58;1667342;84;20188;-69
2022/04/12 03:54:21;;;;;;;2.52;0.70;;;;;;;4.80;53.40;99824.74;1655567;84;21048;-69
2022/04/12 03:56:47;;;;;;;2.05;1.17;;;;;;;4.84;53.48;99833.98;1665459;84;21054;-69
2022/04/12 03:59:13;;;;;;;4.53;1.35;;;;;;;4.87;53.41;99837.60;1671246;84;21068;-69
2022/04/12 04:01:39;;;;;;;3.40;1.07;;;;;;;4.91;53.44;99843.89;1694031;81;21019;-69
2022/04/12 04:04:07;;;;;;;8.57;0.90;;;;;;;4.93;53.52;99838.77;1731895;82;21030;-70
2022/04/12 04:06:34;;;;;;;3.13;0.83;;;;;;;4.96;53.04;99823.09;1729721;82;21051;-69
2022/04/12 04:09:02;;;;;;;1.27;0.60;;;;;;;4.96;53.01;99841.59;1722542;81;21050;-69
2022/04/12 04:11:29;;;;;;;2.90;1.20;;;;;;;4.98;53.20;99844.89;1719946;82;21578;-69
2022/04/12 04:13:56;;;;;;;2.83;0.80;;;;;;;5.01;53.00;99843.22;1734248;82;21062;-69
2022/04/12 04:16:23;;;;;;;2.73;1.63;;;;;;;5.04;52.99;99842.40;1725569;82;21103;-69
2022/04/12 04:18:49;;;;;;;2.07;1.13;;;;;;;5.07;53.04;99842.59;1730065;81;21030;-70
2022/04/12 04:21:15;;;;;;;3.30;0.75;;;;;;;5.10;52.66;99842.23;1724577;82;20998;-70
2022/04/12 04:23:42;;;;;;;3.67;0.97;;;;;;;5.12;52.47;99844.72;1719942;82;21042;-69
2022/04/12 04:26:10;;;;;;;4.60;0.80;;;;;;;5.13;52.37;99844.56;1710757;82;21111;-70
2022/04/12 04:28:36;;;;;;;7.87;0.75;;;;;;;5.16;52.34;99849.52;1715899;82;21078;-69
2022/04/12 04:31:03;;;;;;;2.60;0.73;;;;;;;5.17;52.23;99844.55;1710719;82;21604;-68
2022/04/12 04:33:30;;;;;;;3.40;1.27;;;;;;;5.18;52.20;99855.47;1707837;82;21081;-71
2022/04/12 04:35:57;;;;;;;2.70;0.63;;;;;;;5.18;51.94;99855.47;1649288;85;21106;-69
2022/04/12 04:38:23;;;;;;;3.02;1.27;;;;;;;5.19;52.02;99870.31;1691420;83;21089;-75
2022/04/12 04:40:50;;;;;;;;;;;;;;;5.19;52.18;99863.70;1686523;83;21086;-73
2022/04/12 04:43:17;;;;;;;1.22;1.12;;;;;;;5.19;52.25;99870.31;1691365;83;20199;-74
2022/04/12 04:45:45;;;;;;;2.73;1.13;;;;;;;5.18;52.06;99865.19;1638521;86;21638;-74
2022/04/12 04:48:13;;;;;;;2.50;1.10;;;;;;;5.19;52.12;99857.10;1650962;86;21066;-70
2022/04/12 04:50:39;;;;;;;2.23;1.10;;;;;;;5.23;51.94;99870.81;1648991;85;21134;-74
2022/04/12 04:53:09;;;;;;;1.93;1.10;;;;;;;5.25;52.07;99875.44;1649021;85;21630;-75
2022/04/12 04:55:42;;;;;;;2.27;1.00;;;;;;;5.25;51.97;99868.83;1651796;85;21039;-74
2022/04/12 04:58:07;;;;;;;2.00;1.10;;;;;;;5.26;52.00;99859.42;1649328;85;21082;-74
2022/04/12 05:00:34;;;;;;;2.92;0.98;;;;;;;5.31;52.03;99861.55;1651005;85;21046;-69
2022/04/12 05:03:03;;;;;;;2.53;1.07;;;;;;;5.34;51.97;99858.59;1635710;85;21534;-70
2022/04/12 05:05:31;;;;;;;3.37;0.70;;;;;;;5.36;51.91;99863.71;1622090;87;21661;-68
2022/04/12 05:07:59;;;;;;;4.27;1.27;;;;;;;5.35;51.92;99852.33;1627041;87;21524;-70
2022/04/12 05:10:29;;;;;;;3.00;0.70;;;;;;;5.34;51.80;99861.73;1616715;87;21089;-69
2022/04/12 05:12:59;;;;;;;3.83;1.37;;;;;;;5.36;51.80;99854.47;1653643;84;21135;-69
2022/04/12 05:15:28;;;;;;;2.70;0.60;;;;;;;5.38;51.90;99855.13;1659277;84;21045;-70
2022/04/12 05:17:56;;;;;;;1.20;0.67;;;;;;;5.41;51.85;99866.69;1658616;84;21076;-71
2022/04/12 05:20:25;;;;;;;6.43;1.50;;;;;;;5.40;51.97;99857.09;1659056;84;21157;-69
2022/04/12 05:22:53;;;;;;;6.43;1.00;;;;;;;5.41;51.68;99864.05;1680897;83;21043;-70
2022/04/12 05:25:20;;;;;;;3.97;1.43;;;;;;;5.42;51.49;99855.11;1702248;83;21526;-70
2022/04/12 05:27:46;;;;;;;2.40;1.07;;;;;;;5.43;51.80;99872.63;1700026;83;21062;-70
2022/04/12 05:30:14;;;;;;;4.85;0.82;;;;;;;5.45;52.21;99868.01;1694570;84;21117;-69
2022/04/12 05:32:40;;;;;;;1.97;0.30;;;;;;;5.46;52.13;99869.64;1700776;83;21027;-70
2022/04/12 05:35:09;;;;;;;0.77;0.70;;;;;;;5.46;51.99;99863.03;1687207;83;21138;-70
2022/04/12 05:37:48;;;;;;;1.83;0.70;;;;;;;5.45;52.21;99862.21;1661837;84;21554;-70
2022/04/12 05:40:15;;;;;;;5.50;1.50;;;;;;;5.46;52.40;99859.06;1669680;84;21095;-69
2022/04/12 05:42:43;;;;;;;2.87;1.00;;;;;;;5.49;51.91;99858.75;1672142;84;21085;-70
2022/04/12 05:45:11;;;;;;;2.73;1.43;;;;;;;5.53;51.97;99876.42;1678785;84;21058;-68
2022/04/12 05:47:41;;;;;;;2.10;0.97;;;;;;;5.60;51.85;99880.05;1665317;85;21121;-69
2022/04/12 05:50:11;;;;;;;1.53;0.77;;;;;;;5.61;51.73;99881.22;1660423;85;21154;-69
2022/04/12 05:52:38;;;;;;;3.60;1.10;;;;;;;5.57;51.79;99875.91;1653545;84;21081;-69
2022/04/12 05:55:08;;;;;;;4.13;1.20;;;;;;;5.57;52.01;99879.87;1620409;86;21110;-69
2022/04/12 05:57:38;;;;;;;3.17;0.90;;;;;;;5.62;51.93;99870.95;1587215;88;21072;-68
2022/04/12 06:00:08;;;;;;;4.47;0.97;;;;;;;5.66;51.97;99869.62;1621881;84;21090;-68
2022/04/12 06:02:35;;;;;;;1.80;0.50;;;;;;;5.69;51.77;99882.17;1726836;81;21093;-69
2022/04/12 06:05:03;;;;;;;4.50;1.03;;;;;;;5.71;52.12;99878.39;1733966;81;21080;-70
2022/04/12 06:07:32;;;;;;;3.33;1.30;;;;;;;5.77;51.98;99880.35;1739407;81;21630;-72
2022/04/12 06:10:03;;;;;;;1.53;0.40;;;;;;;5.80;51.90;99889.76;1696170;82;21082;-69
2022/04/12 06:12:31;;;;;;;1.73;0.83;;;;;;;5.82;52.01;99877.19;1732879;81;21101;-70
2022/04/12 06:14:57;;;;;;;3.08;0.98;;;;;;;5.87;51.90;99880.16;1733069;81;21076;-68
2022/04/12 06:17:31;;;;;;;3.27;1.15;;;;;;;5.94;51.67;99885.11;1723418;81;21633;-70
2022/04/12 06:20:10;;;;;;;2.97;1.00;;;;;;;6.01;51.39;99891.41;1740845;82;21041;-70
2022/04/12 06:22:38;;;;;;;2.72;0.50;;;;;;;6.04;51.29;99880.47;1709044;81;21066;-70
2022/04/12 06:25:07;;;;;;;2.03;0.60;;;;;;;6.12;51.35;99893.35;1701537;83;21542;-70
2022/04/12 06:27:43;;;;;;;1.77;0.80;;;;;;;6.19;51.50;99884.56;1707344;83;21005;-70
2022/04/12 06:30:14;;;;;;;3.67;0.68;;;;;;;6.27;51.15;99885.02;1702050;83;21071;-70
2022/04/12 06:32:43;;;;;;;3.93;0.67;;;;;;;6.33;50.66;99872.92;1695453;83;22110;-70
2022/04/12 06:35:14;;;;;;;0.93;0.43;;;;;;;6.37;50.56;99883.02;1711181;83;21588;-70
2022/04/12 06:37:44;;;;;;;2.77;0.60;;;;;;;6.42;50.63;99870.57;1706973;82;21015;-70
2022/04/12 06:40:15;;;;;;;3.10;1.20;;;;;;;6.46;50.57;99881.16;1696814;82;21330;-69
2022/04/12 06:42:42;;;;;;;2.77;0.77;;;;;;;6.48;50.21;99871.70;1707859;82;21084;-70
2022/04/12 06:45:11;;;;;;;3.17;0.97;;;;;;;6.51;49.97;99884.09;1689502;83;21383;-70
2022/04/12 06:47:38;;;;;;;3.30;1.57;;;;;;;6.53;50.00;99872.83;1668762;83;21151;-70
2022/04/12 06:50:06;;;;;;;4.00;1.40;;;;;;;6.56;50.09;99878.30;1676842;84;21090;-70
2022/04/12 06:52:33;;;;;;;6.10;1.10;;;;;;;6.56;50.00;99879.63;1678158;84;21508;-71
2022/04/12 06:55:00;;;;;;;2.57;0.83;;;;;;;6.52;50.01;99871.70;1680500;84;21056;-70
2022/04/12 06:57:34;;;;;;;1.90;1.30;;;;;;;6.51;50.10;99865.56;1680924;84;21084;-70
2022/04/12 07:00:05;;;;;;;5.40;0.97;;;;;;;6.53;50.02;99868.86;1684253;84;21079;-72
2022/04/12 07:02:31;;;;;;;1.83;0.90;;;;;;;6.57;50.30;99877.28;1677733;84;21071;-70
2022/04/12 07:04:57;;;;;;;3.40;1.17;;;;;;;6.65;50.08;99869.80;1678190;84;21387;-69
2022/04/12 07:07:24;;;;;;;2.42;0.93;;;;;;;6.71;49.64;99872.58;1683050;84;21381;-70
2022/04/12 07:09:51;;;;;;;3.07;0.97;;;;;;;6.77;49.77;99863.93;1674902;84;21108;-71
2022/04/12 07:12:19;;;;;;;1.63;0.50;;;;;;;6.85;49.58;99866.20;1696767;83;21049;-70
2022/04/12 07:14:45;;;;;;;1.80;0.70;;;;;;;6.91;49.41;99871.64;1712210;82;21066;-69
2022/04/12 07:17:13;;;;;;;1.77;0.50;;;;;;;7.00;48.96;99881.67;1673699;84;21121;-71
2022/04/12 07:19:39;;;;;;;1.70;1.00;;;;;;;7.08;48.74;99846.33;1672586;84;21097;-70
2022/04/12 07:22:07;;;;;;;4.27;1.13;;;;;;;7.12;48.24;99867.02;1667460;83;21301;-71
2022/04/12 07:24:35;;;;;;;3.17;0.60;;;;;;;7.16;47.84;99853.73;1699928;83;21102;-70
2022/04/12 07:27:01;;;;;;;;;;;;;;;7.26;47.67;99848.17;1655060;84;21012;-72
2022/04/12 07:29:29;;;;;;;3.87;1.23;;;;;;;7.37;47.48;99853.05;1671902;84;20103;-70
2022/04/12 07:31:57;;;;;;;2.80;0.67;;;;;;;7.42;47.43;99848.52;1662108;84;21115;-71
2022/04/12 07:34:24;;;;;;;3.90;1.40;;;;;;;7.54;47.01;99847.61;1647461;84;21115;-72
2022/04/12 07:36:53;;;;;;;4.22;0.75;;;;;;;7.64;46.71;99847.34;1639669;86;21147;-71
2022/04/12 07:39:18;;;;;;;2.13;1.17;;;;;;;7.75;46.45;99840.27;1629239;86;21562;-69
2022/04/12 07:41:47;;;;;;;5.03;2.23;;;;;;;7.74;46.16;99849.21;1640201;86;21229;-71
2022/04/12 07:44:14;;;;;;;3.20;1.40;;;;;;;7.68;46.47;99840.16;1641732;86;21068;-70
2022/04/12 07:46:41;;;;;;;2.30;0.70;;;;;;;7.72;46.82;99843.27;1636785;86;21102;-73
2022/04/12 07:49:07;;;;;;;3.27;0.95;;;;;;;7.75;46.30;99839.75;1640123;86;21024;-71
2022/04/12 07:51:35;;;;;;;4.67;1.03;;;;;;;7.85;46.50;99833.36;1640202;86;21091;-71
2022/04/12 07:54:02;;;;;;;3.90;0.98;;;;;;;7.94;45.94;99807.86;1640413;86;21115;-72
2022/04/12 07:56:28;;;;;;;2.50;0.90;;;;;;;8.04;45.32;99834.63;1669215;85;21111;-73
2022/04/12 07:58:55;;;;;;;1.97;0.57;;;;;;;8.10;45.50;99816.63;1692624;85;21159;-71
2022/04/12 08:01:23;;;;;;;4.20;0.72;;;;;;;8.19;45.14;99833.63;1689673;84;21174;-71
2022/04/12 08:03:49;;;;;;;3.27;0.50;;;;;;;8.30;44.69;99843.44;1697417;83;21078;-72
2022/04/12 08:06:16;;;;;;;2.73;0.57;;;;;;;8.37;44.82;99846.48;1671124;85;21218;-73
2022/04/12 08:08:44;;;;;;;1.73;0.60;;;;;;;8.40;44.58;99828.05;1675796;84;21166;-72
2022/04/12 08:11:11;;;;;;;2.93;0.60;;;;;;;8.45;44.51;99834.97;1678051;85;21119;-71
2022/04/12 08:13:40;;;;;;;2.50;0.90;;;;;;;8.52;45.05;99842.52;1641454;86;21082;-74
2022/04/12 08:16:08;;;;;;;2.20;0.73;;;;;;;8.65;44.52;99852.47;1702448;83;21482;-71
2022/04/12 08:18:36;;;;;;;4.50;0.90;;;;;;;8.68;44.19;99842.80;1712702;83;21098;-73
2022/04/12 08:21:03;;;;;;;;;;;;;;;8.68;43.83;99841.48;1710359;83;21054;-73
2022/04/12 08:23:29;;;;;;;2.70;0.33;;;;;;;8.72;43.78;99854.70;1688472;83;20118;-73
2022/04/12 08:25:56;;;;;;;5.53;0.85;;;;;;;8.76;44.06;99841.34;1701036;83;21050;-72
2022/04/12 08:28:24;;;;;;;2.57;0.30;;;;;;;8.91;43.43;99844.44;1704303;83;21084;-72
2022/04/12 08:30:50;;;;;;;1.72;0.90;;;;;;;8.92;43.20;99831.48;1704041;83;21046;-72
2022/04/12 08:33:16;;;;;;;0.53;0.20;;;;;;;8.84;42.57;99847.05;1686768;83;21027;-70
2022/04/12 08:35:44;;;;;;;2.50;0.40;;;;;;;8.83;43.34;99853.88;1681624;83;21340;-71
2022/04/12 08:38:10;;;;;;;;;;;;;;;8.88;43.19;99858.94;1702245;83;21471;-74
2022/04/12 08:40:37;;;;;;;4.73;0.70;;;;;;;9.03;43.36;99858.88;1690025;83;20323;-73
2022/04/12 08:43:05;;;;;;;;;;;;;;;9.15;43.08;99849.88;1693133;83;21193;-72
2022/04/12 08:45:35;;;;;;;0.60;0.40;;;;;;;9.16;42.85;99848.37;1687530;83;20172;-72
2022/04/12 08:48:07;;;;;;;2.40;0.27;;;;;;;9.12;42.25;99846.30;1677862;83;21078;-72
2022/04/12 08:50:35;;;;;;;3.60;0.43;;;;;;;9.03;42.12;99812.88;1682609;83;21173;-72
2022/04/12 08:53:03;;;;;;;4.47;0.53;;;;;;;9.34;42.12;99828.45;1691189;83;21114;-72
2022/04/12 08:55:32;;;;;;;2.27;0.43;;;;;;;9.46;42.00;99836.24;1688690;83;21518;-71
2022/04/12 08:57:59;;;;;;;1.67;0.30;;;;;;;9.57;42.13;99840.22;1664702;85;21114;-71
2022/04/12 09:00:25;;;;;;;;;;;;;;;9.72;41.19;99829.47;1686257;83;21055;-72
2022/04/12 09:02:57;;;;;;;5.23;0.27;;;;;;;9.87;40.71;99830.66;1695122;84;20161;-71
2022/04/12 09:05:22;;;;;;;2.07;0.27;;;;;;;9.97;40.26;99826.33;1708333;82;21179;-70
2022/04/12 09:07:49;;;;;;;4.15;0.20;;;;;;;10.04;39.70;99828.50;1705916;82;21050;-74
2022/04/12 09:10:16;;;;;;;2.42;0.20;;;;;;;10.06;39.70;99823.83;1694662;84;21074;-73
2022/04/12 09:12:43;;;;;;;3.97;0.30;;;;;;;10.07;39.30;99829.45;1709985;82;21084;-71
2022/04/12 09:15:12;;;;;;;1.47;0.30;;;;;;;10.10;39.40;99809.09;1712536;83;21550;-72
2022/04/12 09:17:41;;;;;;;1.63;0.30;;;;;;;10.08;39.39;99816.45;1719456;82;21078;-72
2022/04/12 09:20:23;;;;;;;0.80;0.40;;;;;;;10.00;39.37;99829.91;1713305;82;21061;-72
2022/04/12 09:22:48;;;;;;;1.63;0.30;;;;;;;10.02;39.66;99819.89;1701921;82;21150;-72
2022/04/12 09:25:16;;;;;;;1.07;0.20;;;;;;;10.05;39.43;99788.88;1645192;84;21617;-71
2022/04/12 09:27:49;;;;;;;1.43;0.23;;;;;;;10.09;39.24;99807.44;1661549;84;21113;-71
2022/04/12 09:30:18;;;;;;;2.67;0.50;;;;;;;10.17;39.50;99798.45;1668048;84;21795;-71
2022/04/12 09:32:49;;;;;;;2.10;0.20;;;;;;;10.17;39.26;99828.59;1662679;84;21636;-72
2022/04/12 09:35:17;;;;;;;4.90;0.27;;;;;;;10.22;39.14;99825.31;1685798;85;21026;-74
2022/04/12 09:37:45;;;;;;;1.27;0.37;;;;;;;10.20;39.37;99814.05;1673391;84;21189;-73
2022/04/12 09:40:18;;;;;;;2.00;0.40;;;;;;;10.17;39.15;99803.77;1672068;84;21338;-72
2022/04/12 09:42:51;;;;;;;1.07;0.20;;;;;;;10.19;39.62;99799.06;1628890;86;21159;-72
2022/04/12 09:45:25;;;;;;;2.37;0.43;;;;;;;10.21;39.38;99820.51;1637385;86;21039;-73
2022/04/12 09:47:54;;;;;;;1.13;0.20;;;;;;;10.21;39.85;99813.85;1641573;86;20986;-72
2022/04/12 09:50:24;;;;;;;1.33;0.30;;;;;;;10.19;38.47;99819.89;1676745;83;21106;-72
2022/04/12 09:53:02;;;;;;;2.77;0.70;;;;;;;10.19;37.78;99824.37;1680735;83;21067;-72
2022/04/12 09:55:42;;;;;;;2.33;0.30;;;;;;;10.22;37.68;99823.47;1688238;83;21642;-73
2022/04/12 09:58:13;;;;;;;1.33;0.33;;;;;;;10.17;37.38;99813.94;1697023;83;21075;-73
2022/04/12 10:00:42;;;;;;;1.07;0.20;;;;;;;10.13;36.92;99818.84;1687067;83;21195;-72
2022/04/12 10:03:12;;;;;;;1.97;0.53;;;;;;;10.13;37.10;99829.98;1685149;84;21058;-71
2022/04/12 10:05:38;;;;;;;1.87;0.40;;;;;;;10.13;37.01;99831.31;1704915;83;21054;-73
2022/04/12 10:08:09;;;;;;;2.22;0.33;;;;;;;10.18;37.42;99820.08;1718714;83;21102;-71
2022/04/12 10:10:35;;;;;;;1.67;0.50;;;;;;;10.28;37.56;99848.48;1699778;83;21051;-72
2022/04/12 10:13:02;;;;;;;2.17;0.70;;;;;;;10.24;36.75;99851.23;1700149;83;21079;-70
2022/04/12 10:15:29;;;;;;;0.87;0.27;;;;;;;10.16;36.92;99846.91;1698678;83;21074;-72
2022/04/12 10:17:56;;;;;;;2.50;0.77;;;;;;;10.19;37.11;99853.66;1709164;83;21220;-71
2022/04/12 10:20:23;;;;;;;3.37;0.40;;;;;;;10.26;36.80;99842.02;1689472;83;21080;-71
2022/04/12 10:22:51;;;;;;;3.27;0.30;;;;;;;10.29;36.21;99855.47;1692285;83;21097;-73
2022/04/12 10:25:21;;;;;;;2.58;0.50;;;;;;;10.28;36.36;99853.33;1712311;83;21037;-72
2022/04/12 10:27:50;;;;;;;2.63;0.40;;;;;;;10.27;36.35;99854.85;1690870;83;21108;-73
2022/04/12 10:30:25;;;;;;;1.47;0.20;;;;;;;10.31;35.90;99858.27;1699056;83;21628;-72
2022/04/12 10:33:03;;;;;;;3.63;0.60;;;;;;;10.32;35.23;99860.41;1697152;83;21062;-72
2022/04/12 10:35:34;;;;;;;3.43;0.60;;;;;;;10.20;35.72;99856.14;1674039;83;21631;-71
2022/04/12 10:38:04;;;;;;;3.00;0.50;;;;;;;10.09;35.92;99847.38;1672435;83;21584;-71
2022/04/12 10:40:34;;;;;;;4.80;0.60;;;;;;;9.95;36.22;99853.15;1676790;83;21068;-72
2022/04/12 10:43:02;;;;;;;2.00;0.33;;;;;;;9.88;36.42;99856.27;1686329;83;21072;-71
2022/04/12 10:45:33;;;;;;;2.40;0.40;;;;;;;9.82;36.38;99841.91;1708081;82;21044;-70
2022/04/12 10:48:01;;;;;;;1.87;0.27;;;;;;;9.87;37.36;99858.61;1693211;83;21014;-72
2022/04/12 10:50:27;;;;;;;4.13;0.60;;;;;;;9.92;36.43;99838.38;1694715;83;21903;-70
2022/04/12 10:52:54;;;;;;;4.47;0.60;;;;;;;10.00;37.19;99829.91;1699521;83;21081;-74
2022/04/12 10:55:25;;;;;;;0.83;0.30;;;;;;;10.13;36.35;99839.30;1686362;83;21165;-72
2022/04/12 10:57:53;;;;;;;3.53;0.53;;;;;;;10.14;36.31;99847.61;1675908;83;21525;-71
2022/04/12 11:00:23;;;;;;;1.03;0.30;;;;;;;10.13;35.54;99859.27;1678248;82;21046;-71
2022/04/12 11:02:56;;;;;;;1.67;0.37;;;;;;;10.13;35.67;99853.95;1715299;82;21073;-71
2022/04/12 11:05:44;;;;;;;3.53;0.23;;;;;;;10.13;36.01;99863.27;1738145;82;21021;-70
2022/04/12 11:08:19;;;;;;;1.65;0.30;;;;;;;10.16;36.33;99837.58;1700943;82;21130;-72
2022/04/12 11:10:59;;;;;;;3.12;0.20;;;;;;;10.19;35.92;99846.52;1659253;84;21374;-70
2022/04/12 11:13:30;;;;;;;1.67;0.40;;;;;;;10.24;35.77;99843.25;1628949;86;21561;-71
2022/04/12 11:16:09;;;;;;;4.17;0.43;;;;;;;10.35;35.88;99839.23;1664320;84;21609;-70
2022/04/12 11:18:57;;;;;;;2.17;0.20;;;;;;;10.39;35.02;99849.80;1699727;82;21112;-71
2022/04/12 11:21:47;;;;;;;2.83;0.30;;;;;;;10.39;35.51;99821.83;1699375;82;21038;-71
2022/04/12 11:24:17;;;;;;;2.57;0.20;;;;;;;10.40;36.20;99855.45;1729846;82;21494;-71
2022/04/12 11:26:51;;;;;;;2.93;0.20;;;;;;;10.39;35.77;99878.59;1689346;82;21132;-71
2022/04/12 11:29:19;;;;;;;2.63;0.50;;;;;;;10.24;35.49;99857.90;1683500;83;21124;-72
2022/04/12 11:31:53;;;;;;;1.47;0.17;;;;;;;10.12;35.79;99845.66;1684202;82;21433;-72
2022/04/12 11:34:22;;;;;;;1.77;0.40;;;;;;;10.07;36.38;99862.21;1719965;82;21084;-73
2022/04/12 11:36:55;;;;;;;1.20;0.30;;;;;;;10.11;35.69;99855.98;1726354;81;21037;-72
2022/04/12 11:39:27;;;;;;;3.50;0.50;;;;;;;10.08;35.78;99863.05;1728188;81;21067;-71
2022/04/12 11:42:07;;;;;;;2.73;0.20;;;;;;;10.05;35.97;99863.44;1745371;82;21061;-72
2022/04/12 11:44:35;;;;;;;0.33;0.13;;;;;;;10.08;36.01;99863.05;1730447;81;21042;-72
2022/04/12 11:47:07;;;;;;;1.57;0.67;;;;;;;10.02;35.46;99874.47;1713403;82;21097;-72
2022/04/12 11:49:42;;;;;;;1.37;0.30;;;;;;;10.02;35.61;99865.16;1717884;82;21475;-72
2022/04/12 11:52:11;;;;;;;0.93;0.10;;;;;;;10.03;36.00;99860.97;1695511;82;21047;-71